Time;durP1;ratioP1;P1;durP2;ratioP2;P2;SDS_P1;SDS_P2;PMS_P1;PMS_P2;Temp;Humidity;BMP_temperature;BMP_pressure;BME280_temperature;BME280_humidity;BME280_pressure;Samples;Min_cycle;Max_cycle;Signal;HPM_P1;HPM_P2
2021/07/13 00:00:15;;;;;;;5.25;2.80;;;;;;;19.93;90.17;98228.41;5133588;27;20058;-78
2021/07/13 00:02:42;;;;;;;7.22;3.05;;;;;;;19.99;90.36;98232.00;5155839;27;20042;-79
2021/07/13 00:05:13;;;;;;;3.65;2.63;;;;;;;19.89;90.18;98223.69;5157292;27;20095;-78
2021/07/13 00:07:40;;;;;;;5.50;3.03;;;;;;;20.04;89.92;98233.94;5157137;27;20046;-78
2021/07/13 00:10:09;;;;;;;4.50;3.85;;;;;;;19.90;91.43;98236.38;5156520;27;20091;-78
2021/07/13 00:12:37;;;;;;;3.92;2.20;;;;;;;19.94;91.41;98246.59;5157016;27;20091;-78
2021/07/13 00:15:05;;;;;;;4.72;2.25;;;;;;;19.88;91.63;98235.81;5156602;27;20039;-77
2021/07/13 00:17:31;;;;;;;6.32;2.58;;;;;;;19.83;92.12;98233.88;5156969;27;20387;-78
2021/07/13 00:19:58;;;;;;;3.58;2.33;;;;;;;19.91;91.35;98236.09;5157223;27;20054;-78
2021/07/13 00:22:26;;;;;;;2.78;2.28;;;;;;;19.75;91.73;98217.78;5156571;27;20704;-78
2021/07/13 00:24:53;;;;;;;4.05;2.38;;;;;;;19.83;91.81;98238.53;5157043;27;20058;-78
2021/07/13 00:27:20;;;;;;;4.47;2.42;;;;;;;19.90;91.29;98228.09;5152791;27;20043;-78
2021/07/13 00:29:46;;;;;;;5.10;2.35;;;;;;;19.96;91.13;98241.66;5156827;27;20046;-78
2021/07/13 00:32:13;;;;;;;5.05;2.40;;;;;;;19.77;91.97;98215.59;5154084;27;20050;-78
2021/07/13 00:34:40;;;;;;;3.72;2.50;;;;;;;19.95;91.91;98242.75;5155913;27;20042;-78
2021/07/13 00:37:07;;;;;;;3.40;2.67;;;;;;;19.91;91.07;98236.09;5156407;27;20039;-78
2021/07/13 00:39:35;;;;;;;3.85;3.00;;;;;;;19.89;91.50;98235.56;5156143;27;20091;-78
2021/07/13 00:42:01;;;;;;;3.75;2.53;;;;;;;20.01;91.58;98243.59;5156156;27;20103;-78
2021/07/13 00:44:28;;;;;;;6.32;2.60;;;;;;;19.79;91.49;98225.28;5145791;27;20050;-78
2021/07/13 00:47:00;;;;;;;6.53;3.20;;;;;;;19.82;91.40;98242.41;5156598;27;20072;-78
2021/07/13 00:49:27;;;;;;;2.95;2.30;;;;;;;19.71;91.31;98234.03;5156438;27;20039;-78
2021/07/13 00:51:54;;;;;;;4.63;2.10;;;;;;;19.67;90.16;98248.63;5155417;27;20497;-78
2021/07/13 00:54:21;;;;;;;5.47;2.97;;;;;;;19.56;90.16;98254.09;5155999;27;20447;-78
2021/07/13 00:56:53;;;;;;;5.40;2.45;;;;;;;19.36;89.88;98246.50;5155496;27;20095;-78
2021/07/13 00:59:19;;;;;;;4.22;1.75;;;;;;;19.39;89.80;98261.66;5141747;27;20502;-78
2021/07/13 01:01:47;;;;;;;3.00;1.88;;;;;;;19.41;89.85;98274.09;5144755;27;20379;-78
2021/07/13 01:04:16;;;;;;;3.97;1.80;;;;;;;19.37;89.58;98270.19;5156136;27;20046;-78
2021/07/13 01:06:50;;;;;;;2.67;1.80;;;;;;;19.31;89.11;98256.66;5155245;27;20047;-78
2021/07/13 01:09:28;;;;;;;3.10;1.85;;;;;;;19.40;88.76;98260.59;5146175;27;20087;-78
2021/07/13 01:12:02;;;;;;;3.88;2.17;;;;;;;19.38;89.16;98268.28;5155057;27;20099;-78
2021/07/13 01:14:33;;;;;;;3.08;1.60;;;;;;;19.18;90.12;98249.66;5134908;27;20051;-78
2021/07/13 01:17:04;;;;;;;2.45;1.90;;;;;;;19.24;89.88;98274.25;5143365;27;20051;-78
2021/07/13 01:19:53;;;;;;;3.67;1.60;;;;;;;19.28;89.91;98278.16;5146844;27;20423;-78
2021/07/13 01:22:26;;;;;;;3.75;1.83;;;;;;;19.25;90.44;98272.31;5146048;27;20482;-78
2021/07/13 01:25:07;;;;;;;13.27;2.53;;;;;;;19.23;90.28;98231.25;5154979;27;20050;-78
2021/07/13 01:27:55;;;;;;;2.70;1.77;;;;;;;19.16;90.82;98229.81;5155764;27;20142;-78
2021/07/13 01:30:25;;;;;;;3.03;1.90;;;;;;;19.08;91.60;98231.97;5155023;27;20043;-78
2021/07/13 01:32:57;;;;;;;2.72;1.85;;;;;;;19.16;91.45;98238.91;5148878;27;20134;-78
2021/07/13 01:35:29;;;;;;;3.58;1.70;;;;;;;19.09;91.31;98221.78;5148520;27;20061;-78
2021/07/13 01:38:00;;;;;;;3.60;2.55;;;;;;;18.94;92.03;98194.97;5154747;27;20099;-77
2021/07/13 01:40:29;;;;;;;2.53;2.10;;;;;;;18.75;93.62;98209.06;5155041;27;20485;-77
2021/07/13 01:42:58;;;;;;;5.50;2.80;;;;;;;18.51;95.19;98200.31;5154785;27;20046;-77
2021/07/13 01:45:27;;;;;;;6.50;2.22;;;;;;;18.36;96.52;98178.97;5154579;27;20047;-77
2021/07/13 01:47:55;;;;;;;4.50;2.47;;;;;;;18.33;97.43;98185.00;5152625;27;20066;-77
2021/07/13 01:50:23;;;;;;;3.05;2.30;;;;;;;18.33;98.29;98181.44;5155431;27;20401;-78
2021/07/13 01:52:51;;;;;;;5.35;2.67;;;;;;;18.33;98.43;98170.44;5154751;27;20107;-77
2021/07/13 01:55:18;;;;;;;4.80;2.63;;;;;;;18.33;98.73;98170.44;5155222;27;20050;-78
2021/07/13 01:57:45;;;;;;;6.07;3.28;;;;;;;18.41;98.65;98172.69;5155028;27;20527;-78
2021/07/13 02:00:13;;;;;;;6.20;3.17;;;;;;;18.31;99.47;98167.13;5154971;27;20551;-78
2021/07/13 02:02:44;;;;;;;5.55;3.30;;;;;;;18.18;100.00;98157.34;5154627;27;20099;-78
2021/07/13 02:05:12;;;;;;;5.55;3.40;;;;;;;18.21;100.00;98168.66;5138631;27;20043;-78
2021/07/13 02:07:42;;;;;;;6.18;3.60;;;;;;;18.27;100.00;98187.97;5141628;27;20470;-78
2021/07/13 02:10:11;;;;;;;7.47;3.95;;;;;;;18.31;100.00;98184.44;5148036;27;20096;-78
2021/07/13 02:12:40;;;;;;;5.13;3.75;;;;;;;18.45;100.00;98211.53;5154675;27;20100;-79
2021/07/13 02:15:08;;;;;;;7.55;5.22;;;;;;;18.50;100.00;98222.59;5154056;27;20066;-79
2021/07/13 02:17:36;;;;;;;6.07;4.43;;;;;;;18.45;100.00;98233.56;5154667;27;20038;-79
2021/07/13 02:20:07;;;;;;;6.93;4.35;;;;;;;18.49;100.00;98248.47;5155176;27;20051;-79
2021/07/13 02:22:33;;;;;;;13.07;4.10;;;;;;;18.50;100.00;98241.84;5153126;27;20050;-80
2021/07/13 02:25:00;;;;;;;9.90;3.78;;;;;;;18.47;100.00;98247.88;5154383;27;20046;-80
2021/07/13 02:27:31;;;;;;;8.07;3.85;;;;;;;18.40;100.00;98257.19;5153700;27;20046;-80
2021/07/13 02:29:59;;;;;;;7.03;3.35;;;;;;;18.40;100.00;98256.34;5155045;27;20078;-80
2021/07/13 02:32:31;;;;;;;4.70;3.33;;;;;;;18.35;100.00;98259.88;5153424;27;20498;-80
2021/07/13 02:35:00;;;;;;;4.88;3.10;;;;;;;18.12;100.00;98233.47;5154364;27;20055;-79
2021/07/13 02:37:29;;;;;;;8.82;3.05;;;;;;;18.03;100.00;98238.56;5153443;27;20103;-80
2021/07/13 02:39:57;;;;;;;7.22;2.42;;;;;;;18.07;100.00;98238.09;5153601;27;20288;-79
2021/07/13 02:42:24;;;;;;;10.32;2.65;;;;;;;18.11;100.00;98264.81;5140819;27;20051;-80
2021/07/13 02:44:54;;;;;;;7.50;2.42;;;;;;;18.12;100.00;98276.66;5153848;27;20054;-80
2021/07/13 02:47:22;;;;;;;;;;;;;;;18.03;100.00;98290.81;5154139;27;20050;-80
2021/07/13 02:49:52;;;;;;;5.95;2.25;;;;;;;18.08;100.00;98289.25;5153579;27;20370;-80
2021/07/13 02:52:21;;;;;;;7.40;2.50;;;;;;;18.16;100.00;98306.13;5154260;27;20088;-80
2021/07/13 02:54:55;;;;;;;6.38;2.03;;;;;;;18.00;100.00;98302.34;5153476;27;20047;-80
2021/07/13 02:57:24;;;;;;;9.90;2.53;;;;;;;18.00;100.00;98293.25;5153559;27;20137;-80
2021/07/13 02:59:53;;;;;;;2.53;1.70;;;;;;;18.07;100.00;98288.41;5133477;27;20486;-80
2021/07/13 03:02:21;;;;;;;5.27;1.73;;;;;;;18.12;100.00;98279.41;5149242;27;20549;-80
2021/07/13 03:04:49;;;;;;;6.38;1.60;;;;;;;18.03;100.00;98274.31;5153205;27;20291;-80
2021/07/13 03:07:18;;;;;;;2.92;1.65;;;;;;;18.08;100.00;98250.72;5153883;27;20379;-80
2021/07/13 03:09:44;;;;;;;4.93;1.50;;;;;;;18.02;100.00;98260.84;5153511;27;20047;-80
2021/07/13 03:12:13;;;;;;;4.60;1.65;;;;;;;18.00;100.00;98247.34;5154190;27;20129;-79
2021/07/13 03:14:42;;;;;;;3.95;1.65;;;;;;;18.00;100.00;98235.53;5152859;27;20039;-79
2021/07/13 03:17:10;;;;;;;5.75;1.65;;;;;;;18.01;100.00;98227.00;5149855;27;20051;-79
2021/07/13 03:19:38;;;;;;;2.13;1.50;;;;;;;18.00;100.00;98195.09;5139203;27;20043;-79
2021/07/13 03:22:09;;;;;;;4.25;1.48;;;;;;;17.97;100.00;98175.53;5153735;27;20042;-80
2021/07/13 03:24:39;;;;;;;4.57;1.67;;;;;;;17.99;100.00;98170.59;5135088;27;20092;-80
2021/07/13 03:27:09;;;;;;;2.85;1.52;;;;;;;18.14;100.00;98194.69;5153582;27;20054;-80
2021/07/13 03:29:38;;;;;;;4.38;2.45;;;;;;;18.02;100.00;98178.34;5153776;27;20054;-80
2021/07/13 03:32:06;;;;;;;6.47;1.75;;;;;;;18.20;99.38;98193.66;5152777;27;20538;-80
2021/07/13 03:34:33;;;;;;;3.35;1.63;;;;;;;18.24;98.49;98192.06;5151310;27;20562;-80
2021/07/13 03:37:01;;;;;;;6.22;1.65;;;;;;;18.17;99.20;98177.69;5146702;27;20050;-80
2021/07/13 03:39:28;;;;;;;2.75;1.55;;;;;;;18.12;99.55;98161.13;5157763;27;20478;-80
2021/07/13 03:41:55;;;;;;;3.63;1.38;;;;;;;18.22;96.77;98161.25;5156992;27;20091;-80
2021/07/13 03:44:22;;;;;;;4.90;1.30;;;;;;;18.13;97.08;98143.56;5156573;27;20046;-80
2021/07/13 03:46:52;;;;;;;8.18;2.03;;;;;;;18.09;97.24;98126.72;5141193;27;20096;-80
2021/07/13 03:49:19;;;;;;;7.57;1.52;;;;;;;17.95;97.79;98109.00;5157180;27;20051;-80
2021/07/13 03:51:47;;;;;;;4.35;1.60;;;;;;;18.02;98.69;98123.34;5146428;27;20043;-80
2021/07/13 03:54:16;;;;;;;5.00;1.88;;;;;;;17.97;98.24;98124.13;5155503;27;20042;-80
2021/07/13 03:56:44;;;;;;;2.53;1.38;;;;;;;17.83;98.39;98111.84;5157182;27;20391;-80
2021/07/13 03:59:11;;;;;;;3.63;1.73;;;;;;;17.84;98.84;98113.53;5156837;27;20501;-80
2021/07/13 04:01:37;;;;;;;4.00;1.83;;;;;;;17.91;98.78;98136.16;5157462;27;20099;-80
2021/07/13 04:04:07;;;;;;;3.05;1.75;;;;;;;17.72;99.70;98123.81;5156522;27;20047;-79
2021/07/13 04:06:34;;;;;;;5.63;2.25;;;;;;;17.84;100.00;98141.84;5157034;27;20125;-80
2021/07/13 04:09:01;;;;;;;4.35;1.95;;;;;;;17.80;99.92;98139.84;5156395;27;20443;-79
2021/07/13 04:11:28;;;;;;;5.43;1.77;;;;;;;17.82;99.47;98130.25;5136409;27;20051;-79
2021/07/13 04:13:55;;;;;;;2.30;1.80;;;;;;;17.88;99.81;98131.13;5156709;27;20050;-80
2021/07/13 04:16:22;;;;;;;3.35;2.10;;;;;;;17.88;100.00;98128.38;5156644;27;20050;-79
2021/07/13 04:18:59;;;;;;;5.78;1.83;;;;;;;17.84;99.70;98119.00;5156626;27;20050;-80
2021/07/13 04:21:28;;;;;;;2.65;1.70;;;;;;;17.90;99.74;98128.16;5156710;27;20053;-81
2021/07/13 04:23:55;;;;;;;2.88;1.80;;;;;;;17.73;100.00;98115.28;5156886;27;20051;-80
2021/07/13 04:26:22;;;;;;;3.33;2.00;;;;;;;17.68;99.45;98107.81;5156322;27;20051;-79
2021/07/13 04:28:48;;;;;;;2.80;1.63;;;;;;;17.86;99.65;98122.31;5155850;27;20051;-80
2021/07/13 04:31:15;;;;;;;3.65;2.00;;;;;;;17.78;100.00;98118.13;5146695;27;20449;-80
2021/07/13 04:33:42;;;;;;;3.28;1.90;;;;;;;17.77;100.00;98102.72;5151508;27;20046;-80
2021/07/13 04:36:09;;;;;;;6.35;2.10;;;;;;;17.90;100.00;98108.91;5156838;27;20099;-80
2021/07/13 04:38:37;;;;;;;5.07;2.05;;;;;;;17.92;100.00;98109.50;5150461;27;20036;-80
2021/07/13 04:41:04;;;;;;;8.90;2.10;;;;;;;18.03;100.00;98095.56;5146719;27;20051;-80
2021/07/13 04:43:30;;;;;;;3.80;1.80;;;;;;;18.20;98.70;98103.75;5155031;27;20047;-80
2021/07/13 04:45:57;;;;;;;4.45;2.15;;;;;;;18.16;98.59;98102.59;5144952;27;20481;-80
2021/07/13 04:48:24;;;;;;;3.97;2.05;;;;;;;18.22;99.88;98103.47;5155743;27;20459;-80
2021/07/13 04:50:50;;;;;;;3.72;2.00;;;;;;;18.15;98.99;98083.59;5150965;27;20087;-80
2021/07/13 04:53:17;;;;;;;4.70;2.13;;;;;;;18.27;99.88;98097.19;5156174;27;20055;-80
2021/07/13 04:55:45;;;;;;;5.13;2.05;;;;;;;18.29;98.09;98090.34;5156155;27;20447;-80
2021/07/13 04:58:12;;;;;;;4.75;2.38;;;;;;;18.30;97.72;98072.72;5156243;27;20406;-80
2021/07/13 05:00:39;;;;;;;4.50;2.30;;;;;;;18.32;99.42;98091.72;5156272;27;20481;-80
2021/07/13 05:03:06;;;;;;;6.00;2.70;;;;;;;18.45;98.80;98090.47;5154413;27;20050;-80
2021/07/13 05:05:32;;;;;;;3.83;2.30;;;;;;;18.57;98.91;98108.44;5156381;27;20387;-80
2021/07/13 05:07:59;;;;;;;5.38;2.38;;;;;;;18.53;100.00;98103.72;5155310;27;20182;-80
2021/07/13 05:10:26;;;;;;;5.00;2.42;;;;;;;18.52;99.41;98107.59;5156231;27;20055;-80
2021/07/13 05:12:54;;;;;;;8.93;2.30;;;;;;;18.50;99.66;98094.09;5153087;27;20054;-80
2021/07/13 05:15:21;;;;;;;4.00;2.40;;;;;;;18.58;98.42;98107.38;5155821;27;20046;-81
2021/07/13 05:17:48;;;;;;;6.55;2.45;;;;;;;18.41;97.59;98076.38;5155845;27;20046;-81
2021/07/13 05:20:15;;;;;;;3.70;2.28;;;;;;;18.60;96.88;98092.53;5148131;27;20051;-80
2021/07/13 05:22:49;;;;;;;3.58;2.10;;;;;;;18.52;96.86;98096.59;5143651;27;20051;-80
2021/07/13 05:25:20;;;;;;;8.30;2.53;;;;;;;18.54;97.03;98084.19;5154921;27;20111;-80
2021/07/13 05:27:47;;;;;;;5.00;2.65;;;;;;;18.60;97.29;98081.50;5155826;27;20038;-80
2021/07/13 05:30:18;;;;;;;3.97;2.13;;;;;;;18.86;98.26;98113.69;5149931;27;20051;-80
2021/07/13 05:32:45;;;;;;;3.70;2.40;;;;;;;18.87;98.49;98115.31;5135643;27;20108;-80
2021/07/13 05:35:12;;;;;;;3.85;2.05;;;;;;;18.95;98.35;98105.72;5140909;27;20459;-80
2021/07/13 05:37:39;;;;;;;4.72;2.58;;;;;;;19.00;96.43;98111.28;5149999;27;20543;-80
2021/07/13 05:40:07;;;;;;;4.78;2.47;;;;;;;19.05;98.11;98110.47;5148183;27;20059;-80
2021/07/13 05:42:34;;;;;;;3.67;2.05;;;;;;;19.16;92.09;98094.84;5153775;27;20046;-80
2021/07/13 05:45:01;;;;;;;5.20;2.30;;;;;;;19.32;94.23;98109.53;5154458;27;20099;-80
2021/07/13 05:47:30;;;;;;;6.30;2.17;;;;;;;19.10;94.51;98089.31;5147715;27;20046;-80
2021/07/13 05:49:57;;;;;;;6.20;2.28;;;;;;;19.17;93.51;98085.50;5144666;27;20478;-80
2021/07/13 05:52:23;;;;;;;2.85;1.98;;;;;;;19.22;94.19;98096.53;5139025;27;20055;-80
2021/07/13 05:54:50;;;;;;;2.55;2.03;;;;;;;19.22;92.26;98074.47;5150861;27;20072;-80
2021/07/13 05:57:18;;;;;;;3.75;2.60;;;;;;;19.38;91.42;98067.13;5142651;27;20069;-80
2021/07/13 05:59:45;;;;;;;3.75;2.00;;;;;;;19.41;92.50;98083.13;5138926;27;20043;-80
2021/07/13 06:02:12;;;;;;;5.95;2.45;;;;;;;19.44;92.06;98082.59;5150699;27;20050;-80
2021/07/13 06:04:47;;;;;;;3.97;2.17;;;;;;;19.42;94.08;98090.28;5151283;27;20046;-81
2021/07/13 06:07:14;;;;;;;6.88;1.65;;;;;;;19.20;93.24;98072.00;5146741;27;20039;-81
2021/07/13 06:09:41;;;;;;;3.35;2.00;;;;;;;19.35;95.72;98097.97;5135802;27;20111;-80
2021/07/13 06:12:08;;;;;;;5.30;2.13;;;;;;;19.18;95.23;98090.72;5146480;27;20103;-81
2021/07/13 06:14:36;;;;;;;7.57;2.28;;;;;;;19.07;97.04;98092.59;5155759;27;20399;-81
2021/07/13 06:17:04;;;;;;;7.03;2.90;;;;;;;19.01;98.31;98099.16;5136388;27;20047;-82
2021/07/13 06:19:31;;;;;;;8.30;2.63;;;;;;;18.87;98.42;98098.78;5151616;27;20062;-79
2021/07/13 06:21:59;;;;;;;7.45;2.47;;;;;;;18.98;98.93;98118.97;5155797;27;20512;-79
2021/07/13 06:24:26;;;;;;;10.43;3.40;;;;;;;18.85;100.00;98135.94;5155881;27;20050;-80
2021/07/13 06:26:53;;;;;;;9.43;3.35;;;;;;;18.78;100.00;98127.88;5155787;27;20092;-80
2021/07/13 06:29:20;;;;;;;6.20;3.35;;;;;;;18.71;100.00;98135.53;5156114;27;20447;-79
2021/07/13 06:31:47;;;;;;;6.80;2.47;;;;;;;18.61;100.00;98130.78;5150289;27;20130;-79
2021/07/13 06:34:13;;;;;;;4.35;2.50;;;;;;;18.66;100.00;98144.59;5135348;27;20100;-79
2021/07/13 06:36:40;;;;;;;3.72;2.70;;;;;;;18.57;100.00;98143.41;5151334;27;20043;-80
2021/07/13 06:39:08;;;;;;;6.35;3.00;;;;;;;18.37;100.00;98136.63;5155520;27;20046;-80
2021/07/13 06:41:35;;;;;;;10.27;3.63;;;;;;;18.45;100.00;98132.56;5156130;27;20050;-79
2021/07/13 06:44:05;;;;;;;4.78;3.35;;;;;;;18.60;100.00;98142.88;5153062;27;20035;-80
2021/07/13 06:46:34;;;;;;;6.90;4.00;;;;;;;18.74;100.00;98149.63;5148995;27;20047;-79
2021/07/13 06:49:02;;;;;;;6.35;4.35;;;;;;;18.75;100.00;98131.97;5155485;27;20050;-79
2021/07/13 06:51:30;;;;;;;13.02;4.15;;;;;;;18.75;100.00;98114.66;5155337;27;20050;-79
2021/07/13 06:53:57;;;;;;;11.40;3.83;;;;;;;18.81;100.00;98110.00;5142534;27;20058;-79
2021/07/13 06:56:25;;;;;;;7.95;4.18;;;;;;;18.94;100.00;98134.38;5133629;27;20050;-79
2021/07/13 06:58:52;;;;;;;7.85;3.72;;;;;;;18.85;100.00;98116.66;5148766;27;20265;-79
2021/07/13 07:01:19;;;;;;;4.22;3.30;;;;;;;19.01;99.16;98145.97;5154177;27;20439;-78
2021/07/13 07:03:46;;;;;;;5.53;3.38;;;;;;;18.94;99.88;98134.38;5152927;27;20482;-79
2021/07/13 07:06:12;;;;;;;6.45;3.72;;;;;;;18.87;100.00;98136.53;5153838;27;20054;-79
2021/07/13 07:08:39;;;;;;;6.70;3.75;;;;;;;18.72;100.00;98143.53;5153607;27;20046;-79
2021/07/13 07:11:06;;;;;;;4.95;2.85;;;;;;;18.65;100.00;98142.94;5153162;27;20050;-79
2021/07/13 07:13:34;;;;;;;7.95;2.90;;;;;;;18.64;100.00;98149.53;5153850;27;20047;-79
2021/07/13 07:16:01;;;;;;;4.50;2.75;;;;;;;18.58;100.00;98145.06;5153160;27;20418;-79
2021/07/13 07:18:28;;;;;;;4.25;2.40;;;;;;;18.40;100.00;98140.78;5154107;27;20049;-79
2021/07/13 07:20:55;;;;;;;5.05;2.22;;;;;;;18.50;100.00;98151.91;5149175;27;20051;-79
2021/07/13 07:23:21;;;;;;;4.53;2.60;;;;;;;18.57;100.00;98135.97;5132931;27;20092;-79
2021/07/13 07:25:48;;;;;;;5.40;2.70;;;;;;;18.69;100.00;98130.28;5141733;27;20042;-79
2021/07/13 07:28:15;;;;;;;5.43;2.70;;;;;;;18.71;100.00;98149.28;5153078;27;20555;-79
2021/07/13 07:30:43;;;;;;;7.15;3.25;;;;;;;18.53;100.00;98154.13;5153820;27;20525;-79
2021/07/13 07:33:10;;;;;;;9.02;2.88;;;;;;;18.64;100.00;98170.69;5152570;27;20439;-79
2021/07/13 07:35:37;;;;;;;7.28;2.38;;;;;;;18.54;100.00;98179.72;5149979;27;20054;-79
2021/07/13 07:38:04;;;;;;;5.82;2.80;;;;;;;18.40;100.00;98171.88;5135222;27;20046;-79
2021/07/13 07:40:30;;;;;;;4.60;2.60;;;;;;;18.34;100.00;98183.91;5153582;27;20099;-79
2021/07/13 07:42:59;;;;;;;5.47;2.20;;;;;;;18.34;100.00;98197.69;5132805;27;20047;-79
2021/07/13 07:45:27;;;;;;;9.13;2.60;;;;;;;18.29;100.00;98188.53;5132603;27;20058;-79
2021/07/13 07:47:55;;;;;;;7.97;2.50;;;;;;;18.31;100.00;98194.63;5151754;27;20049;-79
2021/07/13 07:50:23;;;;;;;6.43;2.42;;;;;;;18.22;100.00;98175.00;5153927;27;20102;-79
2021/07/13 07:52:50;;;;;;;4.47;2.50;;;;;;;18.18;100.00;98165.59;5152148;27;20054;-79
2021/07/13 07:55:19;;;;;;;5.85;2.00;;;;;;;18.30;100.00;98168.19;5136297;27;20049;-79
2021/07/13 07:57:46;;;;;;;3.38;1.92;;;;;;;18.37;100.00;98155.06;5150014;27;20444;-79
2021/07/13 08:00:14;;;;;;;5.78;2.20;;;;;;;18.40;100.00;98166.38;5152346;27;20104;-80
2021/07/13 08:02:42;;;;;;;6.57;2.33;;;;;;;18.36;100.00;98142.38;5153337;27;20043;-79
2021/07/13 08:05:11;;;;;;;7.40;2.45;;;;;;;18.41;100.00;98156.19;5152753;27;20042;-79
2021/07/13 08:07:38;;;;;;;5.50;2.75;;;;;;;18.45;100.00;98178.53;5152914;27;20042;-79
2021/07/13 08:10:08;;;;;;;4.65;2.38;;;;;;;18.24;100.00;98177.50;5141148;27;20051;-79
2021/07/13 08:12:35;;;;;;;7.38;2.20;;;;;;;18.30;100.00;98187.44;5146439;27;20054;-79
2021/07/13 08:15:03;;;;;;;3.70;2.45;;;;;;;18.28;100.00;98179.47;5145068;27;20092;-79
2021/07/13 08:17:30;;;;;;;5.63;2.50;;;;;;;18.33;100.00;98182.25;5144641;27;20051;-79
2021/07/13 08:19:56;;;;;;;6.28;2.38;;;;;;;18.29;100.00;98174.78;5132473;27;20092;-80
2021/07/13 08:22:25;;;;;;;7.07;3.25;;;;;;;18.37;100.00;98157.81;5146348;27;20066;-79
2021/07/13 08:24:51;;;;;;;8.40;2.50;;;;;;;18.43;100.00;98140.25;5155990;27;20046;-79
2021/07/13 08:27:18;;;;;;;5.80;2.70;;;;;;;18.52;100.00;98159.88;5150062;27;20051;-79
2021/07/13 08:29:45;;;;;;;4.80;3.05;;;;;;;18.43;100.00;98156.78;5138949;27;20100;-79
2021/07/13 08:32:12;;;;;;;13.15;2.70;;;;;;;18.52;100.00;98179.97;5144582;27;20095;-79
2021/07/13 08:34:38;;;;;;;7.85;2.92;;;;;;;18.45;100.00;98170.28;5151178;27;20046;-79
2021/07/13 08:37:06;;;;;;;9.55;2.67;;;;;;;18.35;100.00;98171.84;5136335;27;20426;-80
2021/07/13 08:39:34;;;;;;;6.07;2.90;;;;;;;18.35;100.00;98174.59;5140544;27;20077;-79
2021/07/13 08:42:02;;;;;;;8.48;2.80;;;;;;;18.32;100.00;98157.75;5155930;27;20038;-79
2021/07/13 08:44:30;;;;;;;8.38;2.65;;;;;;;18.37;100.00;98153.13;5155619;27;20085;-79
2021/07/13 08:46:57;;;;;;;5.70;2.75;;;;;;;18.54;100.00;98171.44;5141506;27;20055;-79
2021/07/13 08:49:25;;;;;;;3.55;2.85;;;;;;;18.48;100.00;98165.06;5138123;27;20043;-79
2021/07/13 08:51:52;;;;;;;4.85;2.40;;;;;;;18.55;100.00;98182.19;5155586;27;20043;-79
2021/07/13 08:54:19;;;;;;;5.07;2.40;;;;;;;18.69;100.00;98173.50;5156347;27;20047;-79
2021/07/13 08:56:47;;;;;;;7.10;3.40;;;;;;;18.69;100.00;98177.09;5155798;27;20047;-80
2021/07/13 08:59:14;;;;;;;5.47;3.42;;;;;;;18.86;100.00;98179.75;5156276;27;20051;-79
2021/07/13 09:01:41;;;;;;;10.07;4.75;;;;;;;18.86;100.00;98171.50;5140665;27;20051;-79
2021/07/13 09:04:09;;;;;;;9.38;2.75;;;;;;;18.80;100.00;98166.97;5144489;27;20058;-79
2021/07/13 09:06:53;;;;;;;7.10;2.33;;;;;;;18.68;100.00;98189.22;5156444;27;20589;-79
2021/07/13 09:09:25;;;;;;;5.35;2.30;;;;;;;18.78;100.00;98191.22;5156319;27;20047;-79
2021/07/13 09:12:12;;;;;;;6.65;2.75;;;;;;;18.64;100.00;98190.81;5156371;27;20046;-79
2021/07/13 09:14:56;;;;;;;6.70;2.15;;;;;;;18.47;100.00;98179.94;5155821;27;20055;-79
2021/07/13 09:17:44;;;;;;;6.00;2.08;;;;;;;18.21;100.00;98203.59;5155724;27;20061;-79
2021/07/13 09:20:16;;;;;;;1.00;0.68;;;;;;;17.98;100.00;98201.97;5154918;27;20050;-78
2021/07/13 09:22:53;;;;;;;3.20;0.70;;;;;;;17.78;100.00;98214.34;5156150;27;20047;-79
2021/07/13 09:25:26;;;;;;;1.13;0.50;;;;;;;17.78;100.00;98219.84;5144431;27;20054;-78
2021/07/13 09:28:16;;;;;;;0.52;0.50;;;;;;;17.74;100.00;98228.84;5155933;27;20110;-78
2021/07/13 09:30:47;;;;;;;0.77;0.50;;;;;;;17.64;100.00;98235.00;5145385;27;20057;-78
2021/07/13 09:33:26;;;;;;;5.70;0.43;;;;;;;17.51;100.00;98239.78;5134943;27;20085;-78
2021/07/13 09:36:04;;;;;;;0.40;0.40;;;;;;;17.17;100.00;98245.31;5135037;27;20088;-78
2021/07/13 09:38:33;;;;;;;1.65;0.20;;;;;;;17.10;99.96;98241.94;5154070;27;20102;-79
2021/07/13 09:41:05;;;;;;;0.30;0.30;;;;;;;16.83;100.00;98247.22;5156011;27;20042;-78
2021/07/13 09:43:51;;;;;;;0.22;0.10;;;;;;;16.72;100.00;98259.09;5154160;27;20042;-78
2021/07/13 09:46:28;;;;;;;0.32;0.00;;;;;;;16.35;100.00;98256.72;5155453;27;20111;-79
2021/07/13 09:49:15;;;;;;;0.20;0.20;;;;;;;16.12;100.00;98263.97;5154626;27;20047;-78
2021/07/13 09:51:44;;;;;;;0.15;0.15;;;;;;;16.16;100.00;98261.59;5138623;27;20050;-78
2021/07/13 09:54:31;;;;;;;1.15;0.30;;;;;;;15.88;100.00;98247.59;5154802;27;20653;-78
2021/07/13 09:56:59;;;;;;;0.47;0.35;;;;;;;15.83;100.00;98263.94;5155263;27;20076;-79
2021/07/13 09:59:30;;;;;;;0.68;0.30;;;;;;;15.65;100.00;98288.72;5153195;27;20046;-81
2021/07/13 10:01:57;;;;;;;2.28;0.25;;;;;;;15.37;100.00;98273.81;5152276;27;20043;-80
2021/07/13 10:04:24;;;;;;;0.77;0.30;;;;;;;15.19;100.00;98282.97;5142210;27;20046;-81
2021/07/13 10:06:53;;;;;;;4.55;0.40;;;;;;;15.19;100.00;98286.56;5145095;27;20055;-80
2021/07/13 10:09:24;;;;;;;0.20;0.20;;;;;;;15.10;100.00;98284.38;5136001;27;20046;-80
2021/07/13 10:11:51;;;;;;;0.20;0.20;;;;;;;15.22;100.00;98304.41;5153949;27;20050;-79
2021/07/13 10:14:19;;;;;;;5.95;0.30;;;;;;;15.27;100.00;98326.44;5154184;27;20042;-80
2021/07/13 10:16:48;;;;;;;0.20;0.20;;;;;;;14.98;100.00;98322.66;5154228;27;20502;-80
2021/07/13 10:19:15;;;;;;;0.60;0.30;;;;;;;15.12;100.00;98331.53;5154625;27;20095;-81
2021/07/13 10:21:46;;;;;;;0.10;0.10;;;;;;;15.19;100.00;98345.94;5154104;27;20034;-81
2021/07/13 10:24:14;;;;;;;0.20;0.20;;;;;;;15.10;100.00;98314.50;5154739;27;20050;-82
2021/07/13 10:26:46;;;;;;;4.68;0.25;;;;;;;15.18;100.00;98290.34;5139455;27;20050;-81
2021/07/13 10:29:39;;;;;;;0.32;0.30;;;;;;;15.28;100.00;98291.66;5154795;27;20058;-82
2021/07/13 10:32:29;;;;;;;1.00;0.30;;;;;;;15.45;100.00;98297.28;5134250;27;20107;-82
2021/07/13 10:34:59;;;;;;;0.50;0.28;;;;;;;15.43;100.00;98264.66;5137846;27;20046;-82
2021/07/13 10:37:32;;;;;;;0.20;0.20;;;;;;;15.87;100.00;98275.25;5154072;27;20051;-82
2021/07/13 10:40:04;;;;;;;5.93;1.10;;;;;;;16.09;99.58;98262.56;5154445;27;20058;-83
2021/07/13 10:42:50;;;;;;;0.30;0.30;;;;;;;16.23;100.00;98279.56;5137024;27;20502;-81
2021/07/13 10:45:23;;;;;;;0.20;0.20;;;;;;;16.21;97.74;98268.03;5153422;27;20078;-81
2021/07/13 10:48:06;;;;;;;2.22;0.28;;;;;;;16.09;96.58;98281.75;5154241;27;20054;-81
2021/07/13 10:50:48;;;;;;;0.20;0.20;;;;;;;15.98;98.43;98273.56;5142711;27;20042;-80
2021/07/13 10:53:21;;;;;;;3.25;0.30;;;;;;;16.03;99.40;98315.63;5153985;27;20054;-80
2021/07/13 10:56:13;;;;;;;1.95;0.30;;;;;;;15.76;99.34;98326.22;5153437;27;20050;-80
2021/07/13 10:58:50;;;;;;;0.40;0.20;;;;;;;15.74;100.00;98329.19;5151902;27;20059;-80
2021/07/13 11:01:32;;;;;;;3.97;0.32;;;;;;;15.63;99.70;98351.97;5146435;27;20103;-80
2021/07/13 11:04:06;;;;;;;2.55;0.20;;;;;;;15.53;99.41;98344.31;5149895;27;20126;-79
2021/07/13 11:06:46;;;;;;;2.25;0.28;;;;;;;15.58;99.70;98371.00;5153936;27;20046;-80
2021/07/13 11:09:33;;;;;;;0.25;0.22;;;;;;;15.55;100.00;98390.66;5154033;27;20121;-79
2021/07/13 11:12:18;;;;;;;1.67;0.22;;;;;;;15.54;100.00;98399.94;5153498;27;20055;-79
2021/07/13 11:15:02;;;;;;;1.80;0.25;;;;;;;15.64;100.00;98396.63;5152853;27;20091;-79
2021/07/13 11:17:32;;;;;;;3.10;0.40;;;;;;;15.70;100.00;98391.03;5150600;27;20107;-80
2021/07/13 11:20:02;;;;;;;;;;;;;;;15.62;99.31;98377.69;5151393;27;20091;-79
2021/07/13 11:22:31;;;;;;;1.08;0.40;;;;;;;15.88;100.00;98339.94;5153431;27;19971;-80
2021/07/13 11:24:58;;;;;;;1.35;0.30;;;;;;;16.01;98.91;98325.97;5153242;27;20502;-81
2021/07/13 11:27:25;;;;;;;1.58;0.32;;;;;;;16.21;98.66;98350.28;5153704;27;20103;-81
2021/07/13 11:29:54;;;;;;;1.98;0.40;;;;;;;16.32;96.83;98343.09;5148548;27;20039;-81
2021/07/13 11:32:21;;;;;;;1.00;0.37;;;;;;;16.44;98.42;98352.13;5151276;27;20074;-80
2021/07/13 11:34:48;;;;;;;0.75;0.20;;;;;;;16.37;97.19;98369.81;5153077;27;20327;-80
2021/07/13 11:37:18;;;;;;;3.63;0.38;;;;;;;16.59;94.69;98364.47;5141760;27;20058;-80
2021/07/13 11:39:46;;;;;;;0.63;0.20;;;;;;;16.52;96.52;98370.13;5144146;27;20047;-79